Weather at Ioannina King Pyrrhus National Airport

Public forecast

Using degrees Celsius for public forecast. Weather courtesy of forecast.io.

Current aviation weather report (METAR) for Ioannina King Pyrrhus National Airport

2024/03/03 08:50 (retrieved 31 minutes ago)

LGIO 030850Z /////KT 9999 FEW005 10/07 Q1016

Closest aviation forecast (TAF) to Ioannina King Pyrrhus National Airport

Closest forecast is Corfu Ioannis Kapodistrias International Airport, 42.5 nm (78.7 km) W.

2024/03/03 06:12 (retrieved 3 hours ago)

TAF LGKR 030500Z 0306/0406 VRB05KT 9999 FEW018 SCT025 BECMG 0309/0311 15010KT PROB30 TEMPO 0311/0315 5000 RA FEW016TCU BKN020 TEMPO 0400/0406 14010G20KT